createdAt,value
2023-05-11T00:01:11.116Z,79.15
2023-05-11T00:06:12.708Z,79.18
2023-05-11T00:11:14.383Z,78.38
2023-05-11T00:16:16.007Z,78.28
2023-05-11T00:21:17.621Z,80.93
2023-05-11T00:26:19.136Z,80.35
2023-05-11T00:31:20.851Z,79.00
2023-05-11T00:36:22.522Z,79.42
2023-05-11T00:41:24.342Z,80.06
2023-05-11T00:46:27.795Z,81.05
2023-05-11T00:51:32.078Z,80.06
2023-05-11T00:56:33.639Z,81.01
2023-05-11T01:01:35.935Z,80.40
2023-05-11T01:06:52.123Z,80.50
2023-05-11T01:11:59.713Z,80.78
2023-05-11T01:17:10.270Z,81.85
2023-05-11T01:22:30.603Z,80.85
2023-05-11T01:27:45.075Z,80.49
2023-05-11T01:32:47.237Z,80.34
2023-05-11T01:37:55.359Z,81.27
2023-05-11T01:43:09.873Z,81.12
2023-05-11T01:48:17.281Z,81.02
2023-05-11T01:53:20.000Z,82.63
2023-05-11T01:58:23.939Z,80.80
2023-05-11T02:03:26.301Z,81.19
2023-05-11T02:08:30.158Z,80.95
2023-05-11T02:13:34.678Z,80.91
2023-05-11T02:18:40.242Z,81.82
2023-05-11T02:23:43.281Z,82.28
2023-05-11T02:28:44.944Z,81.84
2023-05-11T02:33:52.129Z,80.98
2023-05-11T02:39:02.304Z,81.52
2023-05-11T02:44:06.421Z,81.74
2023-05-11T02:49:10.303Z,81.11
2023-05-11T02:54:13.224Z,81.50
2023-05-11T02:59:15.975Z,82.23
2023-05-11T03:04:18.098Z,81.60
2023-05-11T03:09:19.799Z,81.53
2023-05-11T03:14:22.037Z,81.98
2023-05-11T03:19:24.186Z,81.05
2023-05-11T03:24:26.452Z,81.89
2023-05-11T03:29:29.933Z,82.42
2023-05-11T03:34:32.484Z,80.28
2023-05-11T03:39:37.208Z,80.08
2023-05-11T03:44:40.373Z,80.62
2023-05-11T03:49:43.450Z,80.72
2023-05-11T03:54:45.777Z,80.19
2023-05-11T03:59:47.509Z,80.58
2023-05-11T04:04:49.168Z,81.47
2023-05-11T04:09:50.767Z,80.46
2023-05-11T04:14:52.347Z,79.35
2023-05-11T04:19:53.917Z,79.54
2023-05-11T04:24:55.574Z,79.18
2023-05-11T04:29:57.111Z,79.62
2023-05-11T04:34:58.636Z,79.32
2023-05-11T04:40:00.227Z,79.57
2023-05-11T04:45:01.782Z,79.51
2023-05-11T04:50:03.677Z,76.52
2023-05-11T04:55:05.999Z,76.61
2023-05-11T05:00:09.356Z,76.31
2023-05-11T05:05:11.001Z,75.97
2023-05-11T05:10:13.013Z,75.92
2023-05-11T05:15:14.627Z,74.66
2023-05-11T05:20:16.473Z,75.02
2023-05-11T05:25:18.181Z,75.05
2023-05-11T05:30:20.071Z,75.22
2023-05-11T05:35:22.151Z,74.39
2023-05-11T05:40:23.698Z,73.11
2023-05-11T05:45:25.329Z,72.71
2023-05-11T05:50:27.702Z,72.97
2023-05-11T05:55:29.273Z,72.85
2023-05-11T06:00:31.223Z,72.78
2023-05-11T06:05:32.862Z,72.26
2023-05-11T06:10:34.431Z,73.79
2023-05-11T06:15:36.258Z,71.84
2023-05-11T06:20:37.792Z,72.58
2023-05-11T06:25:39.441Z,71.91
2023-05-11T06:30:41.068Z,72.50
2023-05-11T06:35:42.652Z,72.93
2023-05-11T06:40:44.816Z,73.98
2023-05-11T06:45:46.416Z,73.15
2023-05-11T06:50:47.984Z,73.21
2023-05-11T06:55:49.644Z,74.21
2023-05-11T07:00:51.350Z,74.13
2023-05-11T07:05:52.902Z,74.86
2023-05-11T07:10:54.581Z,74.11
2023-05-11T07:15:57.800Z,72.97
2023-05-11T07:20:59.537Z,73.42
2023-05-11T07:26:01.841Z,74.16
2023-05-11T07:31:03.632Z,74.57
2023-05-11T07:36:06.751Z,73.11
2023-05-11T07:41:10.851Z,74.15
2023-05-11T07:46:13.971Z,74.10
2023-05-11T07:51:15.613Z,75.55
2023-05-11T07:56:17.185Z,76.65
2023-05-11T08:01:18.851Z,76.46
2023-05-11T08:06:20.452Z,78.23
2023-05-11T08:11:22.462Z,78.52
2023-05-11T08:16:24.176Z,77.29
2023-05-11T08:21:26.406Z,78.06
2023-05-11T08:26:28.442Z,80.06
2023-05-11T08:31:30.549Z,80.29
2023-05-11T08:36:32.422Z,79.27
2023-05-11T08:41:34.917Z,80.72
2023-05-11T08:46:41.828Z,80.70
2023-05-11T08:51:43.479Z,80.08
2023-05-11T08:56:45.558Z,81.32
2023-05-11T09:01:47.836Z,80.14
2023-05-11T09:06:50.947Z,80.23
2023-05-11T09:11:54.307Z,80.92
2023-05-11T09:16:56.075Z,80.57
2023-05-11T09:21:59.525Z,80.90
2023-05-11T09:27:09.256Z,81.95
2023-05-11T09:32:11.692Z,81.77
2023-05-11T09:37:18.283Z,81.66
2023-05-11T09:42:21.529Z,81.44
2023-05-11T09:47:23.546Z,81.95
2023-05-11T09:52:25.542Z,82.32
2023-05-11T09:57:27.212Z,82.79
2023-05-11T10:02:32.172Z,83.16
2023-05-11T10:07:35.480Z,84.17
2023-05-11T10:12:40.481Z,82.74
2023-05-11T10:17:44.830Z,82.50
2023-05-11T10:22:47.033Z,84.05
2023-05-11T10:27:48.783Z,83.63
2023-05-11T10:32:52.046Z,83.48
2023-05-11T10:37:54.827Z,83.78
2023-05-11T10:43:08.711Z,83.55
2023-05-11T10:48:37.391Z,82.98
2023-05-11T10:54:16.726Z,84.29
2023-05-11T10:59:42.609Z,84.64
2023-05-11T11:04:53.800Z,83.87
2023-05-11T11:10:00.885Z,84.88
2023-05-11T11:15:06.255Z,84.82
2023-05-11T11:20:08.795Z,85.52
2023-05-11T11:25:12.504Z,86.08
2023-05-11T11:30:23.936Z,86.44
2023-05-11T11:35:41.762Z,86.50
2023-05-11T11:40:58.017Z,85.77
2023-05-11T11:46:01.694Z,85.49
2023-05-11T11:51:08.548Z,89.11
2023-05-11T11:56:16.411Z,88.46
2023-05-11T12:01:23.353Z,82.66
2023-05-11T12:06:32.486Z,80.61
2023-05-11T12:11:35.137Z,85.40
2023-05-11T12:16:36.793Z,83.46
2023-05-11T12:21:38.447Z,81.98
2023-05-11T12:26:40.079Z,84.54
2023-05-11T12:31:43.789Z,84.12
2023-05-11T12:36:49.497Z,82.27
2023-05-11T12:41:53.508Z,85.15
2023-05-11T12:46:55.371Z,80.70
2023-05-11T12:52:00.005Z,80.90
2023-05-11T12:57:03.038Z,87.78
2023-05-11T13:02:24.886Z,85.31
2023-05-11T13:07:28.383Z,85.16
2023-05-11T13:12:32.244Z,87.64
2023-05-11T13:17:38.906Z,87.34
2023-05-11T13:22:40.767Z,85.23
2023-05-11T13:27:42.421Z,91.94
2023-05-11T13:32:44.259Z,91.45
2023-05-11T13:37:47.131Z,91.51
2023-05-11T13:42:48.775Z,91.35
2023-05-11T13:47:50.514Z,90.58
2023-05-11T13:52:53.392Z,93.85
2023-05-11T13:57:56.977Z,92.78
2023-05-11T14:02:58.757Z,93.04
2023-05-11T14:08:00.516Z,92.13
2023-05-11T14:13:02.154Z,93.01
2023-05-11T14:18:05.278Z,93.33
2023-05-11T14:23:07.018Z,95.41
2023-05-11T14:28:08.661Z,93.51
2023-05-11T14:33:10.355Z,94.53
2023-05-11T14:38:11.969Z,95.76
2023-05-11T14:43:13.937Z,96.38
2023-05-11T14:48:15.582Z,95.84
2023-05-11T14:53:17.142Z,96.26
2023-05-11T14:58:18.751Z,97.18
2023-05-11T15:03:20.539Z,97.56
2023-05-11T15:08:29.724Z,98.69
2023-05-11T15:13:32.274Z,97.22
2023-05-11T15:18:33.905Z,97.71
2023-05-11T15:23:35.456Z,97.23
2023-05-11T15:28:37.137Z,98.07
2023-05-11T15:33:39.572Z,98.35
2023-05-11T15:38:43.060Z,97.66
2023-05-11T15:43:44.745Z,97.74
2023-05-11T15:48:46.414Z,97.61
2023-05-11T15:53:48.079Z,97.15
2023-05-11T15:58:49.627Z,97.91
2023-05-11T16:03:51.422Z,96.48
2023-05-11T16:08:53.553Z,97.60
2023-05-11T16:13:55.166Z,97.83
2023-05-11T16:18:58.363Z,97.26
2023-05-11T16:24:00.332Z,97.72
2023-05-11T16:29:02.376Z,97.38
2023-05-11T16:34:04.230Z,96.52
2023-05-11T16:39:05.899Z,96.30
2023-05-11T16:44:07.754Z,96.79
2023-05-11T16:49:09.609Z,97.59
2023-05-11T16:54:11.846Z,97.01
2023-05-11T16:59:15.547Z,96.35
2023-05-11T17:04:18.049Z,94.94
2023-05-11T17:09:20.508Z,94.17
2023-05-11T17:14:22.727Z,92.78
2023-05-11T17:19:25.684Z,93.21
2023-05-11T17:24:29.244Z,93.40
2023-05-11T17:29:31.826Z,94.20
2023-05-11T17:34:34.334Z,93.05
2023-05-11T17:39:36.865Z,93.35
2023-05-11T17:44:39.708Z,93.62
2023-05-11T17:49:42.630Z,93.00
2023-05-11T17:54:45.030Z,93.24
2023-05-11T17:59:48.299Z,92.82
2023-05-11T18:04:51.108Z,93.48
2023-05-11T18:09:53.586Z,94.16
2023-05-11T18:14:56.096Z,92.25
2023-05-11T18:19:58.563Z,92.91
2023-05-11T18:25:01.205Z,93.17
2023-05-11T18:30:03.653Z,92.79
2023-05-11T18:35:06.499Z,92.41
2023-05-11T18:40:11.525Z,91.61
2023-05-11T18:45:14.507Z,92.29
2023-05-11T18:56:45.137Z,91.98
2023-05-11T19:01:48.545Z,91.67
2023-05-11T19:06:51.162Z,91.85
2023-05-11T19:11:53.585Z,92.82
2023-05-11T19:16:56.043Z,92.29
2023-05-11T19:22:00.198Z,92.11
2023-05-11T19:27:07.470Z,91.79
2023-05-11T19:32:10.574Z,91.93
2023-05-11T19:37:12.935Z,91.53
2023-05-11T19:42:15.848Z,91.04
2023-05-11T19:47:19.293Z,91.29
2023-05-11T19:52:21.691Z,91.84
2023-05-11T19:57:26.860Z,91.41
2023-05-11T20:02:29.516Z,91.74
2023-05-11T20:07:32.682Z,92.10
2023-05-11T20:12:35.063Z,91.55
2023-05-11T20:17:37.645Z,91.53
2023-05-11T20:22:39.976Z,92.01
2023-05-11T20:27:42.758Z,92.28
2023-05-11T20:37:50.358Z,91.83
2023-05-11T20:42:52.556Z,92.57
2023-05-11T20:47:54.594Z,92.66
2023-05-11T20:52:56.488Z,91.96
2023-05-11T20:57:58.072Z,91.87
2023-05-11T21:02:59.679Z,92.00
2023-05-11T21:08:01.601Z,91.59
2023-05-11T21:13:03.904Z,91.14
2023-05-11T21:18:06.609Z,91.68
2023-05-11T21:23:08.557Z,91.61
2023-05-11T21:28:10.138Z,91.39
2023-05-11T21:33:12.153Z,92.70
2023-05-11T21:38:15.187Z,93.10
2023-05-11T21:43:16.877Z,92.16
2023-05-11T21:48:18.670Z,92.72
2023-05-11T21:53:21.062Z,92.73
2023-05-11T21:58:23.006Z,91.95
2023-05-11T22:03:25.554Z,91.99
2023-05-11T22:08:27.370Z,91.41
2023-05-11T22:13:28.934Z,93.02
2023-05-11T22:18:30.550Z,93.17
2023-05-11T22:23:34.513Z,93.04
2023-05-11T22:28:36.084Z,93.18
2023-05-11T22:33:37.838Z,92.65
2023-05-11T22:38:39.423Z,93.20
2023-05-11T22:43:41.152Z,93.71
2023-05-11T22:48:42.964Z,92.90
2023-05-11T22:53:45.563Z,93.36
2023-05-11T22:58:47.137Z,92.63
2023-05-11T23:03:49.126Z,92.97
2023-05-11T23:08:51.139Z,92.98
2023-05-11T23:13:52.741Z,95.73
2023-05-11T23:18:54.431Z,93.44
2023-05-11T23:23:56.191Z,94.35
2023-05-11T23:28:57.902Z,93.40
2023-05-11T23:34:00.268Z,95.65
2023-05-11T23:39:02.019Z,95.20
2023-05-11T23:44:03.792Z,94.66
2023-05-11T23:49:05.381Z,95.04
2023-05-11T23:54:07.188Z,94.67
2023-05-11T23:59:08.796Z,94.82
